createdAt,value
2022-09-26T00:01:54.728Z,99735.44
2022-09-26T00:04:44.609Z,99728.03
2022-09-26T00:07:33.050Z,99737.38
2022-09-26T00:10:21.471Z,99732.78
2022-09-26T00:13:09.922Z,99734.41
2022-09-26T00:15:58.809Z,99730.28
2022-09-26T00:18:49.543Z,99723.88
2022-09-26T00:21:39.407Z,99720.53
2022-09-26T00:24:27.928Z,99707.97
2022-09-26T00:27:16.434Z,99715.94
2022-09-26T00:30:05.563Z,99724.38
2022-09-26T00:32:53.986Z,99704.53
2022-09-26T00:35:42.483Z,99714.16
2022-09-26T00:38:32.329Z,99709.91
2022-09-26T00:41:20.801Z,99709.56
2022-09-26T00:44:48.076Z,99715.38
2022-09-26T00:47:40.720Z,99709.69
2022-09-26T00:50:32.473Z,99706.66
2022-09-26T00:53:25.223Z,99705.03
2022-09-26T00:56:18.490Z,99705.41
2022-09-26T00:59:11.188Z,99708.53
2022-09-26T01:02:00.871Z,99686.13
2022-09-26T01:04:49.624Z,99702.34
2022-09-26T01:07:38.053Z,99689.94
2022-09-26T01:10:26.701Z,99690.13
2022-09-26T01:13:16.626Z,99695.59
2022-09-26T01:16:05.135Z,99692.59
2022-09-26T01:18:53.584Z,99691.53
2022-09-26T01:22:02.994Z,99694.69
2022-09-26T01:25:02.342Z,99697.63
2022-09-26T01:28:07.611Z,99697.44
2022-09-26T01:31:02.006Z,99689.31
2022-09-26T01:33:58.282Z,99691.00
2022-09-26T01:36:57.352Z,99681.31
2022-09-26T01:39:53.884Z,99694.31
2022-09-26T01:42:50.440Z,99689.75
2022-09-26T01:45:45.825Z,99681.50
2022-09-26T01:48:39.087Z,99677.69
2022-09-26T01:51:30.866Z,99683.03
2022-09-26T01:54:20.927Z,99680.16
2022-09-26T01:57:13.795Z,99652.84
2022-09-26T02:00:05.320Z,99665.47
2022-09-26T02:02:56.404Z,99658.75
2022-09-26T02:05:48.603Z,99669.34
2022-09-26T02:08:39.551Z,99661.69
2022-09-26T02:11:28.083Z,99659.84
2022-09-26T02:14:19.679Z,99636.81
2022-09-26T02:17:12.204Z,99657.53
2022-09-26T02:20:02.579Z,99639.28
2022-09-26T02:22:52.356Z,99660.25
2022-09-26T02:25:40.898Z,99642.72
2022-09-26T02:28:29.415Z,99643.34
2022-09-26T02:31:22.034Z,99633.25
2022-09-26T02:34:10.630Z,99628.09
2022-09-26T02:37:01.099Z,99631.75
2022-09-26T02:39:51.563Z,99633.25
2022-09-26T02:42:45.662Z,99617.84
2022-09-26T02:45:40.035Z,99628.75
2022-09-26T02:48:38.930Z,99614.19
2022-09-26T02:51:46.528Z,99619.66
2022-09-26T02:54:40.663Z,99621.94
2022-09-26T02:57:35.656Z,99621.16
2022-09-26T03:00:26.699Z,99609.66
2022-09-26T03:03:20.421Z,99614.16
2022-09-26T03:06:11.188Z,99617.72
2022-09-26T03:09:00.329Z,99613.88
2022-09-26T03:11:49.173Z,99588.84
2022-09-26T03:14:40.727Z,99606.91
2022-09-26T03:17:29.394Z,99593.00
2022-09-26T03:20:19.988Z,99591.16
2022-09-26T03:23:08.859Z,99595.38
2022-09-26T03:26:02.540Z,99593.53
2022-09-26T03:28:51.845Z,99588.19
2022-09-26T03:31:41.641Z,99577.31
2022-09-26T03:34:30.115Z,99544.28
2022-09-26T03:37:18.764Z,99575.94
2022-09-26T03:40:10.290Z,99571.00
2022-09-26T03:42:58.811Z,99546.75
2022-09-26T03:45:47.334Z,99560.66
2022-09-26T03:48:37.163Z,99555.28
2022-09-26T03:51:25.996Z,99543.84
2022-09-26T03:54:14.885Z,99551.31
2022-09-26T03:57:03.319Z,99544.81
2022-09-26T03:59:51.929Z,99543.16
2022-09-26T04:02:40.421Z,99535.38
2022-09-26T04:05:30.974Z,99539.50
2022-09-26T04:08:19.375Z,99531.53
2022-09-26T04:11:09.629Z,99519.41
2022-09-26T04:13:58.055Z,99512.66
2022-09-26T04:16:46.964Z,99502.94
2022-09-26T04:19:35.433Z,99512.03
2022-09-26T04:22:25.799Z,99508.53
2022-09-26T04:25:14.334Z,99495.81
2022-09-26T04:28:02.919Z,99497.50
2022-09-26T04:30:51.713Z,99491.16
2022-09-26T04:33:40.705Z,99487.66
2022-09-26T04:36:29.165Z,99479.22
2022-09-26T04:39:18.966Z,99475.94
2022-09-26T04:42:07.473Z,99479.69
2022-09-26T04:44:55.950Z,99469.16
2022-09-26T04:47:44.383Z,99469.41
2022-09-26T04:50:32.786Z,99481.75
2022-09-26T04:53:21.279Z,99476.44
2022-09-26T04:56:12.210Z,99458.78
2022-09-26T04:59:02.175Z,99454.66
2022-09-26T05:01:50.656Z,99468.03
2022-09-26T05:04:39.139Z,99472.59
2022-09-26T05:07:27.993Z,99453.50
2022-09-26T05:10:16.738Z,99466.00
2022-09-26T05:13:07.854Z,99445.50
2022-09-26T05:15:56.753Z,99443.25
2022-09-26T05:18:45.366Z,99465.25
2022-09-26T05:21:33.791Z,99457.66
2022-09-26T05:24:39.615Z,99458.66
2022-09-26T05:27:28.026Z,99457.25
2022-09-26T05:30:18.025Z,99453.94
2022-09-26T05:33:06.456Z,99443.25
2022-09-26T05:35:54.873Z,99451.25
2022-09-26T05:38:43.295Z,99441.59
2022-09-26T05:41:31.507Z,99442.41
2022-09-26T05:44:20.080Z,99450.16
2022-09-26T05:47:09.933Z,99452.59
2022-09-26T05:49:58.389Z,99447.19
2022-09-26T05:52:46.876Z,99408.53
2022-09-26T05:55:35.307Z,99450.72
2022-09-26T05:58:23.794Z,99436.84
2022-09-26T06:01:13.722Z,99447.47
2022-09-26T06:04:03.793Z,99456.13
2022-09-26T06:06:52.261Z,99456.13
2022-09-26T06:09:40.659Z,99458.31
2022-09-26T06:12:29.121Z,99457.97
2022-09-26T06:15:17.883Z,99453.44
2022-09-26T06:18:06.452Z,99440.03
2022-09-26T06:20:56.236Z,99443.78
2022-09-26T06:23:45.092Z,99444.91
2022-09-26T06:26:33.517Z,99439.13
2022-09-26T06:29:21.955Z,99446.03
2022-09-26T06:32:10.448Z,99434.59
2022-09-26T06:34:58.928Z,99445.03
2022-09-26T06:37:48.781Z,99448.19
2022-09-26T06:40:37.473Z,99400.22
2022-09-26T06:43:26.168Z,99433.44
2022-09-26T06:46:14.980Z,99433.75
2022-09-26T06:49:03.537Z,99427.78
2022-09-26T06:51:51.992Z,99434.34
2022-09-26T06:54:42.128Z,99430.75
2022-09-26T06:57:31.825Z,99414.25
2022-09-26T07:00:20.379Z,99417.03
2022-09-26T07:03:08.831Z,99420.22
2022-09-26T07:05:57.612Z,99394.81
2022-09-26T07:09:03.831Z,99410.34
2022-09-26T07:12:14.251Z,99410.94
2022-09-26T07:15:04.279Z,99402.38
2022-09-26T07:17:53.553Z,99406.03
2022-09-26T07:20:46.490Z,99408.75
2022-09-26T07:23:35.213Z,99418.94
2022-09-26T07:26:23.606Z,99407.06
2022-09-26T07:29:13.463Z,99411.06
2022-09-26T07:32:02.116Z,99408.81
2022-09-26T07:34:51.519Z,99414.03
2022-09-26T07:37:39.964Z,99412.09
2022-09-26T07:40:28.692Z,99414.84
2022-09-26T07:43:22.408Z,99403.88
2022-09-26T07:46:38.022Z,99406.03
2022-09-26T07:49:43.935Z,99403.56
2022-09-26T07:52:32.379Z,99395.78
2022-09-26T07:55:22.633Z,99397.06
2022-09-26T07:58:11.044Z,99401.03
2022-09-26T08:00:59.570Z,99384.34
2022-09-26T08:03:49.511Z,99389.88
2022-09-26T08:06:38.067Z,99381.31
2022-09-26T08:09:26.609Z,99378.38
2022-09-26T08:12:15.589Z,99371.06
2022-09-26T08:15:06.154Z,99373.56
2022-09-26T08:17:55.056Z,99366.06
2022-09-26T08:20:47.189Z,99369.84
2022-09-26T08:23:35.782Z,99368.56
2022-09-26T08:26:24.240Z,99381.31
2022-09-26T08:29:12.976Z,99369.97
2022-09-26T08:32:02.170Z,99362.34
2022-09-26T08:34:52.544Z,99362.66
2022-09-26T08:37:42.328Z,99359.13
2022-09-26T08:40:36.626Z,99361.56
2022-09-26T08:43:38.055Z,99360.75
2022-09-26T08:46:46.690Z,99347.19
2022-09-26T08:49:59.733Z,99339.56
2022-09-26T08:52:51.986Z,99341.47
2022-09-26T08:55:43.047Z,99314.34
2022-09-26T08:58:38.714Z,99337.16
2022-09-26T09:01:29.725Z,99349.63
2022-09-26T09:04:22.186Z,99348.53
2022-09-26T09:07:17.284Z,99345.50
2022-09-26T09:10:11.280Z,99345.25
2022-09-26T09:13:05.828Z,99359.63
2022-09-26T09:16:05.925Z,99308.63
2022-09-26T09:18:59.847Z,99200.91
2022-09-26T09:22:00.236Z,99347.28
2022-09-26T09:24:54.852Z,99334.56
2022-09-26T09:27:54.911Z,99340.88
2022-09-26T09:30:46.984Z,99249.19
2022-09-26T09:33:39.011Z,99332.81
2022-09-26T09:36:30.361Z,99331.97
2022-09-26T09:39:24.883Z,99318.41
2022-09-26T09:42:18.151Z,99315.44
2022-09-26T09:45:15.495Z,99314.56
2022-09-26T09:48:04.875Z,99317.44
2022-09-26T09:51:02.203Z,99296.81
2022-09-26T09:54:28.095Z,99306.28
2022-09-26T09:57:25.331Z,99290.03
2022-09-26T10:00:17.090Z,99272.72
2022-09-26T10:03:13.901Z,99279.88
2022-09-26T10:06:02.675Z,99280.16
2022-09-26T10:08:51.835Z,99269.28
2022-09-26T10:11:42.719Z,99261.41
2022-09-26T10:14:35.311Z,99171.66
2022-09-26T10:17:25.490Z,99240.28
2022-09-26T10:20:39.941Z,99261.72
2022-09-26T10:23:32.739Z,99252.50
2022-09-26T10:26:30.508Z,99204.91
2022-09-26T10:29:24.834Z,99250.75
2022-09-26T10:32:13.883Z,99247.13
2022-09-26T10:35:08.737Z,99246.47
2022-09-26T10:38:02.521Z,99232.13
2022-09-26T10:40:53.237Z,99246.09
2022-09-26T10:43:53.475Z,99239.47
2022-09-26T10:46:45.164Z,99223.50
2022-09-26T10:49:39.860Z,99217.97
2022-09-26T10:52:34.550Z,99219.63
2022-09-26T10:55:26.121Z,99216.78
2022-09-26T10:58:18.155Z,99207.50
2022-09-26T11:01:07.122Z,99209.91
2022-09-26T11:03:57.374Z,99203.72
2022-09-26T11:06:46.953Z,99198.34
2022-09-26T11:09:38.284Z,99203.22
2022-09-26T11:12:29.057Z,99202.72
2022-09-26T11:15:17.576Z,99200.72
2022-09-26T11:18:06.433Z,99204.38
2022-09-26T11:20:58.494Z,99188.06
2022-09-26T11:23:53.707Z,99163.34
2022-09-26T11:26:51.161Z,99181.78
2022-09-26T11:29:44.500Z,99163.66
2022-09-26T11:32:41.394Z,99201.84
2022-09-26T11:35:43.956Z,99201.94
2022-09-26T11:38:39.314Z,99193.50
2022-09-26T11:41:39.299Z,99187.50
2022-09-26T11:44:49.957Z,99181.06
2022-09-26T11:48:10.925Z,99182.94
2022-09-26T11:51:04.208Z,99175.19
2022-09-26T11:54:24.762Z,99171.81
2022-09-26T11:57:36.443Z,99170.44
2022-09-26T12:00:30.300Z,99149.88
2022-09-26T12:03:36.044Z,99167.72
2022-09-26T12:06:33.285Z,99158.56
2022-09-26T12:09:42.145Z,99162.34
2022-09-26T12:12:40.384Z,99159.66
2022-09-26T12:15:36.532Z,99126.25
2022-09-26T12:18:33.924Z,99116.38
2022-09-26T12:21:29.776Z,99100.63
2022-09-26T12:24:24.143Z,99105.13
2022-09-26T12:27:18.991Z,99064.69
2022-09-26T12:30:11.122Z,99062.50
2022-09-26T12:33:32.890Z,99108.28
2022-09-26T12:36:31.187Z,99118.38
2022-09-26T12:39:30.662Z,99122.34
2022-09-26T12:42:34.857Z,99122.41
2022-09-26T12:45:53.185Z,99094.63
2022-09-26T12:48:54.023Z,99090.50
2022-09-26T12:51:47.111Z,99039.19
2022-09-26T12:54:55.739Z,99073.00
2022-09-26T12:57:58.556Z,99073.25
2022-09-26T13:00:54.211Z,99074.34
2022-09-26T13:04:02.287Z,99070.28
2022-09-26T13:07:20.747Z,99059.53
2022-09-26T13:10:29.702Z,99058.41
2022-09-26T13:13:45.967Z,99052.53
2022-09-26T13:16:42.700Z,99044.50
2022-09-26T13:19:34.789Z,99037.03
2022-09-26T13:22:31.632Z,99028.06
2022-09-26T13:25:22.759Z,99026.81
2022-09-26T13:28:13.602Z,99041.03
2022-09-26T13:31:06.611Z,99001.59
2022-09-26T13:34:03.292Z,99028.38
2022-09-26T13:36:54.306Z,99018.84
2022-09-26T13:39:50.758Z,99014.94
2022-09-26T13:42:43.849Z,99015.47
2022-09-26T13:45:46.301Z,99012.56
2022-09-26T13:48:42.091Z,99011.25
2022-09-26T13:51:40.253Z,99010.72
2022-09-26T13:54:32.254Z,99004.00
2022-09-26T13:57:34.377Z,99002.41
2022-09-26T14:00:49.140Z,98991.94
2022-09-26T14:03:43.090Z,98992.69
2022-09-26T14:06:34.836Z,98980.78
2022-09-26T14:09:28.510Z,98975.44
2022-09-26T14:12:33.550Z,98976.53
2022-09-26T14:15:24.420Z,98974.38
2022-09-26T14:18:24.986Z,98971.72
2022-09-26T14:21:36.106Z,98970.38
2022-09-26T14:24:36.831Z,98962.81
2022-09-26T14:27:29.204Z,98959.00
2022-09-26T14:30:27.087Z,98940.59
2022-09-26T14:33:17.714Z,98949.50
2022-09-26T14:36:25.066Z,98941.91
2022-09-26T14:39:25.986Z,98941.66
2022-09-26T14:42:22.770Z,98934.88
2022-09-26T14:45:22.957Z,98937.25
2022-09-26T14:48:16.999Z,98918.88
2022-09-26T14:51:08.328Z,98927.81
2022-09-26T14:54:00.357Z,98918.03
2022-09-26T14:56:50.287Z,98878.22
2022-09-26T14:59:45.319Z,98923.41
2022-09-26T15:02:40.585Z,98919.09
2022-09-26T15:05:29.309Z,98919.06
2022-09-26T15:08:26.044Z,98920.38
2022-09-26T15:11:26.557Z,98916.88
2022-09-26T15:14:22.966Z,98886.53
2022-09-26T15:17:16.788Z,98925.78
2022-09-26T15:20:09.537Z,98874.31
2022-09-26T15:22:58.273Z,98899.56
2022-09-26T15:25:46.920Z,98905.25
2022-09-26T15:28:38.792Z,98894.44
2022-09-26T15:31:38.638Z,98885.56
2022-09-26T15:34:33.562Z,98879.09
2022-09-26T15:37:25.625Z,98874.25
2022-09-26T15:40:18.431Z,98869.38
2022-09-26T15:43:11.545Z,98862.63
2022-09-26T15:46:03.558Z,98855.84
2022-09-26T15:48:56.978Z,98839.88
2022-09-26T15:51:45.838Z,98847.44
2022-09-26T15:54:35.818Z,98844.22
2022-09-26T15:57:24.427Z,98844.72
2022-09-26T16:00:14.733Z,98850.16
2022-09-26T16:03:21.587Z,98729.19
2022-09-26T16:06:24.942Z,98815.25
2022-09-26T16:09:19.787Z,98827.16
2022-09-26T16:12:19.297Z,98805.22
2022-09-26T16:15:17.029Z,98795.44
2022-09-26T16:18:05.726Z,98817.66
2022-09-26T16:21:15.781Z,98824.41
2022-09-26T16:24:23.337Z,98818.41
2022-09-26T16:27:23.865Z,98826.50
2022-09-26T16:30:37.615Z,98823.25
2022-09-26T16:33:31.501Z,98816.78
2022-09-26T16:36:21.673Z,98815.41
2022-09-26T16:39:21.081Z,98802.19
2022-09-26T16:42:16.307Z,98804.88
2022-09-26T16:45:07.375Z,98810.03
2022-09-26T16:47:55.955Z,98806.00
2022-09-26T16:50:44.536Z,98778.13
2022-09-26T16:53:33.129Z,98791.34
2022-09-26T16:56:23.433Z,98787.03
2022-09-26T16:59:17.677Z,98794.31
2022-09-26T17:02:09.778Z,98790.78
2022-09-26T17:04:58.483Z,98781.88
2022-09-26T17:07:50.568Z,98782.13
2022-09-26T17:10:39.578Z,98777.25
2022-09-26T17:13:29.536Z,98770.81
2022-09-26T17:16:18.253Z,98759.75
2022-09-26T17:19:11.270Z,98761.91
2022-09-26T17:22:00.661Z,98765.94
2022-09-26T17:24:50.231Z,98760.56
2022-09-26T17:27:40.449Z,98751.38
2022-09-26T17:30:29.097Z,98758.69
2022-09-26T17:33:17.716Z,98744.59
2022-09-26T17:36:10.863Z,98746.50
2022-09-26T17:39:00.972Z,98690.78
2022-09-26T17:41:51.292Z,98726.50
2022-09-26T17:44:41.496Z,98733.28
2022-09-26T17:47:30.130Z,98726.81
2022-09-26T17:50:22.180Z,98718.44
2022-09-26T17:53:20.792Z,98710.28
2022-09-26T17:56:12.677Z,98713.31
2022-09-26T17:59:01.998Z,98691.38
2022-09-26T18:01:56.707Z,98701.16
2022-09-26T18:04:45.315Z,98691.72
2022-09-26T18:07:36.415Z,98686.03
2022-09-26T18:10:30.290Z,98678.75
2022-09-26T18:13:26.043Z,98672.53
2022-09-26T18:16:14.972Z,98683.66
2022-09-26T18:19:07.574Z,98685.53
2022-09-26T18:21:58.645Z,98682.59
2022-09-26T18:24:48.237Z,98671.25
2022-09-26T18:27:40.465Z,98669.06
2022-09-26T18:30:29.012Z,98671.75
2022-09-26T18:33:19.539Z,98669.06
2022-09-26T18:36:11.380Z,98668.81
2022-09-26T18:39:00.032Z,98668.53
2022-09-26T18:41:50.115Z,98648.78
2022-09-26T18:44:43.051Z,98674.44
2022-09-26T18:47:34.429Z,98663.06
2022-09-26T18:50:33.060Z,98678.53
2022-09-26T18:53:23.185Z,98679.06
2022-09-26T18:56:30.053Z,98690.66
2022-09-26T18:59:18.574Z,98687.66
2022-09-26T19:02:20.690Z,98687.09
2022-09-26T19:05:12.870Z,98685.19
2022-09-26T19:08:02.106Z,98694.06
2022-09-26T19:10:50.694Z,98683.22
2022-09-26T19:13:39.292Z,98679.13
2022-09-26T19:16:27.842Z,98689.88
2022-09-26T19:19:18.335Z,98691.44
2022-09-26T19:22:10.239Z,98682.00
2022-09-26T19:25:01.750Z,98668.31
2022-09-26T19:27:52.824Z,98678.84
2022-09-26T19:30:41.461Z,98677.16
2022-09-26T19:33:30.284Z,98677.13
2022-09-26T19:36:20.833Z,98678.97
2022-09-26T19:39:11.414Z,98689.13
2022-09-26T19:42:00.056Z,98683.16
2022-09-26T19:44:49.395Z,98687.63
2022-09-26T19:47:39.130Z,98676.81
2022-09-26T19:50:28.007Z,98672.69
2022-09-26T19:53:19.205Z,98667.75
2022-09-26T19:56:08.138Z,98665.28
2022-09-26T19:58:57.727Z,98639.56
2022-09-26T20:01:47.451Z,98663.03
2022-09-26T20:04:36.302Z,98658.91
2022-09-26T20:07:24.939Z,98657.06
2022-09-26T20:10:16.942Z,98666.66
2022-09-26T20:13:05.504Z,98659.41
2022-09-26T20:15:54.535Z,98652.41
2022-09-26T20:18:43.232Z,98653.91
2022-09-26T20:21:32.045Z,98644.44
2022-09-26T20:24:20.672Z,98651.44
2022-09-26T20:27:16.111Z,98638.00
2022-09-26T20:30:25.365Z,98627.00
2022-09-26T20:33:14.320Z,98621.38
2022-09-26T20:36:04.760Z,98599.47
2022-09-26T20:38:55.514Z,98622.38
2022-09-26T20:41:44.652Z,98607.50
2022-09-26T20:44:34.788Z,98605.38
2022-09-26T20:47:23.491Z,98595.91
2022-09-26T20:50:16.085Z,98597.31
2022-09-26T20:53:04.982Z,98587.31
2022-09-26T20:55:55.047Z,98584.88
2022-09-26T20:58:44.179Z,98528.94
2022-09-26T21:01:34.219Z,98582.97
2022-09-26T21:04:25.793Z,98578.59
2022-09-26T21:07:16.316Z,98571.34
2022-09-26T21:10:21.847Z,98559.56
2022-09-26T21:13:10.712Z,98560.19
2022-09-26T21:15:59.252Z,98557.72
2022-09-26T21:18:51.463Z,98553.63
2022-09-26T21:21:40.801Z,98554.91
2022-09-26T21:24:31.446Z,98547.72
2022-09-26T21:27:19.976Z,98547.41
2022-09-26T21:30:13.972Z,98547.09
2022-09-26T21:33:02.541Z,98548.75
2022-09-26T21:35:52.703Z,98540.19
2022-09-26T21:38:41.272Z,98534.25
2022-09-26T21:41:29.920Z,98534.72
2022-09-26T21:44:22.821Z,98526.72
2022-09-26T21:47:11.651Z,98533.03
2022-09-26T21:50:00.228Z,98535.47
2022-09-26T21:52:52.341Z,98534.13
2022-09-26T21:55:44.368Z,98524.88
2022-09-26T21:58:36.022Z,98519.91
2022-09-26T22:01:24.585Z,98522.34
2022-09-26T22:04:13.802Z,98516.97
2022-09-26T22:07:02.394Z,98520.88
2022-09-26T22:09:52.518Z,98515.34
2022-09-26T22:12:41.211Z,98512.81
2022-09-26T22:15:29.763Z,98505.28
2022-09-26T22:18:18.332Z,98490.91
2022-09-26T22:21:07.444Z,98468.31
2022-09-26T22:23:55.979Z,98485.16
2022-09-26T22:26:46.098Z,98478.94
2022-09-26T22:29:34.676Z,98466.75
2022-09-26T22:32:23.292Z,98463.53
2022-09-26T22:35:11.828Z,98463.78
2022-09-26T22:38:00.412Z,98450.25
2022-09-26T22:40:56.968Z,98449.38
2022-09-26T22:43:49.095Z,98457.09
2022-09-26T22:46:38.318Z,98447.50
2022-09-26T22:49:26.906Z,98435.25
2022-09-26T22:52:15.466Z,98447.44
2022-09-26T22:55:04.272Z,98440.44
2022-09-26T22:57:52.820Z,98441.25
2022-09-26T23:00:43.076Z,98437.91
2022-09-26T23:03:33.151Z,98433.78
2022-09-26T23:06:22.463Z,98430.22
2022-09-26T23:09:11.003Z,98419.72
2022-09-26T23:12:02.873Z,98423.31
2022-09-26T23:14:51.406Z,98417.59
2022-09-26T23:17:41.328Z,98414.66
2022-09-26T23:20:29.868Z,98411.34
2022-09-26T23:23:18.402Z,98409.78
2022-09-26T23:26:07.828Z,98395.00
2022-09-26T23:28:58.056Z,98392.38
2022-09-26T23:31:46.699Z,98375.03
2022-09-26T23:34:36.610Z,98395.25
2022-09-26T23:37:25.148Z,98391.22
2022-09-26T23:40:13.780Z,98393.94
2022-09-26T23:43:02.479Z,98386.19
2022-09-26T23:45:51.299Z,98383.38
2022-09-26T23:48:40.340Z,98370.97
2022-09-26T23:51:30.279Z,98368.78
2022-09-26T23:54:18.821Z,98363.16
2022-09-26T23:57:07.365Z,98360.16
2022-09-26T23:59:55.905Z,98362.03
